Current Weather

Spangdahlem Ab

Spangdahlem Ab, Germany (ETAD)

Report from: Sunday, June 26, 2022 6:55 PM CEST
Current time: Sunday, June 26, 2022 7:12 PM CEST

Nearby weather
Weather history
Weather forecast

Temperature18.0°C (64.4°F)
Dew point15.0°C (59.0°F)
Winds 5 kts (2.6 m/s, 5.8 mph) East-Northeast (70°)
Visibility6.2 mi. (10 km)
Clouds Scattered clouds 6,000 ft. (1,829 m)
Ceiling: Broken clouds 12,000 ft. (3,658 m)
Altimeter29.96 in.Hg (1015 mB)
Relative humidity83 %
Density altitude544 ft. (166 m)
Sea-level pressure101.3 kPa (1013 mB, 29.91 in.Hg)
Remarks System requires maintenance
Automated weather observing station with precipitation discriminator
Flight conditions Visual Meteorological Conditions
Raw dataETAD 261655Z 07005KT 9999 SCT060 BKN120 18/15 A2996 RMK AO2A SLP130 $
An error has occurred. This application may no longer respond until reloaded. Reload 🗙